ARG1550 SABE-SACO
Flight info
| Callsign | ARG1550 |
|---|---|
| Flight time | 1h 27m |
| Altitude | 36000 |
| Route | ATOVO4B ATOVO UW5 ASISA ASISA1Q |
| Aircraft | B738/M-SDE2E3FGHIRWXY/LB1 |
Departure
| Time | 2026-05-03 21:01 |
|---|---|
| Airport | Aeroparque Jorge Newbery (SABE) |
Arrival
| Time | 2026-05-03 22:28 |
|---|---|
| Airport | Ingeniero Aeronáutico Ambrosio L.V. Taravella International Airport (SACO) |
| Time | Latitude | Longitude | Altitude | Speed | Heading |
|---|---|---|---|---|---|
| 2026-05-03 20:16 | -34.55507 | -58.41751 | 24 ft | 0 kts | 69° |
| 2026-05-03 20:42 | -34.55509 | -58.41759 | 24 ft | 4 kts | 69° |
| 2026-05-03 20:42 | -34.55519 | -58.41789 | 28 ft | 4 kts | 69° |
| 2026-05-03 20:42 | -34.55527 | -58.41816 | 30 ft | 3 kts | 69° |
| 2026-05-03 20:42 | -34.55540 | -58.41843 | 24 ft | 4 kts | 42° |
| 2026-05-03 20:43 | -34.55561 | -58.41856 | 24 ft | 4 kts | 350° |
| 2026-05-03 20:43 | -34.55584 | -58.41843 | 28 ft | 4 kts | 313° |
| 2026-05-03 20:43 | -34.55600 | -58.41817 | 24 ft | 4 kts | 304° |
| 2026-05-03 20:43 | -34.55615 | -58.41790 | 24 ft | 4 kts | 304° |
| 2026-05-03 20:44 | -34.55623 | -58.41776 | 24 ft | 0 kts | 304° |
| 2026-05-03 20:48 | -34.55609 | -58.41812 | 24 ft | 9 kts | 276° |
| 2026-05-03 20:48 | -34.55660 | -58.41869 | 27 ft | 11 kts | 183° |
| 2026-05-03 20:49 | -34.55711 | -58.41802 | 24 ft | 11 kts | 124° |
| 2026-05-03 20:49 | -34.55748 | -58.41724 | 27 ft | 11 kts | 117° |
| 2026-05-03 20:49 | -34.55781 | -58.41647 | 25 ft | 10 kts | 116° |
| 2026-05-03 20:49 | -34.55811 | -58.41571 | 27 ft | 10 kts | 117° |
| 2026-05-03 20:50 | -34.55842 | -58.41499 | 26 ft | 10 kts | 117° |
| 2026-05-03 20:50 | -34.55872 | -58.41429 | 26 ft | 9 kts | 117° |
| 2026-05-03 20:50 | -34.55900 | -58.41360 | 28 ft | 9 kts | 117° |
| 2026-05-03 20:50 | -34.55929 | -58.41295 | 25 ft | 9 kts | 122° |
| 2026-05-03 20:51 | -34.55964 | -58.41238 | 27 ft | 8 kts | 127° |
| 2026-05-03 20:51 | -34.55998 | -58.41183 | 26 ft | 8 kts | 127° |
| 2026-05-03 20:51 | -34.56031 | -58.41130 | 24 ft | 8 kts | 127° |
| 2026-05-03 20:51 | -34.56063 | -58.41080 | 24 ft | 7 kts | 127° |
| 2026-05-03 20:52 | -34.56094 | -58.41031 | 24 ft | 7 kts | 127° |
| 2026-05-03 20:52 | -34.56123 | -58.40983 | 27 ft | 7 kts | 127° |
| 2026-05-03 20:52 | -34.56150 | -58.40934 | 29 ft | 7 kts | 120° |
| 2026-05-03 20:52 | -34.56172 | -58.40884 | 28 ft | 7 kts | 115° |
| 2026-05-03 20:53 | -34.56177 | -58.40828 | 24 ft | 7 kts | 110° |
| 2026-05-03 20:53 | -34.56208 | -58.40766 | 25 ft | 11 kts | 124° |
| 2026-05-03 20:53 | -34.56252 | -58.40686 | 28 ft | 12 kts | 124° |
| 2026-05-03 20:53 | -34.56297 | -58.40607 | 28 ft | 11 kts | 124° |
| 2026-05-03 20:54 | -34.56332 | -58.40560 | 24 ft | 0 kts | 137° |
| 2026-05-03 20:54 | -34.56352 | -58.40538 | 27 ft | 9 kts | 138° |
| 2026-05-03 20:55 | -34.56365 | -58.40523 | 24 ft | 0 kts | 138° |
| 2026-05-03 20:56 | -34.56379 | -58.40508 | 26 ft | 8 kts | 138° |
| 2026-05-03 20:56 | -34.56413 | -58.40471 | 24 ft | 0 kts | 138° |
| 2026-05-03 20:58 | -34.56426 | -58.40457 | 28 ft | 10 kts | 138° |
| 2026-05-03 20:59 | -34.56491 | -58.40387 | 26 ft | 10 kts | 141° |
| 2026-05-03 20:59 | -34.56540 | -58.40398 | 24 ft | 8 kts | 214° |
| 2026-05-03 20:59 | -34.56561 | -58.40437 | 26 ft | 4 kts | 296° |
| 2026-05-03 20:59 | -34.56559 | -58.40440 | 24 ft | 0 kts | 303° |
| 2026-05-03 21:00 | -34.56489 | -58.40567 | 26 ft | 52 kts | 304° |
| 2026-05-03 21:01 | -34.56144 | -58.41181 | 27 ft | 122 kts | 304° |
| 2026-05-03 21:01 | -34.55562 | -58.42223 | 119 ft | 168 kts | 305° |
| 2026-05-03 21:01 | -34.54915 | -58.43413 | 863 ft | 172 kts | 306° |
| 2026-05-03 21:01 | -34.54117 | -58.44494 | 1518 ft | 177 kts | 334° |
| 2026-05-03 21:02 | -34.52866 | -58.44752 | 1922 ft | 192 kts | 2° |
| 2026-05-03 21:02 | -34.51518 | -58.44520 | 2403 ft | 204 kts | 16° |
| 2026-05-03 21:02 | -34.50224 | -58.43647 | 2843 ft | 221 kts | 31° |
| 2026-05-03 21:02 | -34.48894 | -58.42589 | 3229 ft | 242 kts | 28° |
| 2026-05-03 21:03 | -34.47333 | -58.41469 | 3341 ft | 275 kts | 27° |
| 2026-05-03 21:03 | -34.45682 | -58.40279 | 4260 ft | 273 kts | 28° |
| 2026-05-03 21:03 | -34.44067 | -58.39066 | 5246 ft | 272 kts | 28° |
| 2026-05-03 21:03 | -34.42456 | -58.37851 | 6126 ft | 274 kts | 28° |
| 2026-05-03 21:04 | -34.40827 | -58.36630 | 6879 ft | 279 kts | 26° |
| 2026-05-03 21:04 | -34.39015 | -58.35879 | 7614 ft | 273 kts | 359° |
| 2026-05-03 21:04 | -34.37163 | -58.36156 | 8423 ft | 267 kts | 337° |
| 2026-05-03 21:04 | -34.35536 | -58.37204 | 9228 ft | 265 kts | 323° |
| 2026-05-03 21:05 | -34.34003 | -58.38468 | 10006 ft | 269 kts | 322° |
| 2026-05-03 21:05 | -34.32444 | -58.39781 | 10503 ft | 282 kts | 321° |
| 2026-05-03 21:05 | -34.30762 | -58.41203 | 10658 ft | 307 kts | 322° |
| 2026-05-03 21:05 | -34.28946 | -58.42729 | 10888 ft | 327 kts | 322° |
| 2026-05-03 21:06 | -34.27047 | -58.44311 | 11397 ft | 335 kts | 322° |
| 2026-05-03 21:06 | -34.25109 | -58.45917 | 12049 ft | 340 kts | 322° |
| 2026-05-03 21:06 | -34.23149 | -58.47539 | 12718 ft | 344 kts | 322° |
| 2026-05-03 21:06 | -34.21157 | -58.49187 | 13383 ft | 349 kts | 322° |
| 2026-05-03 21:07 | -34.19138 | -58.50856 | 14035 ft | 354 kts | 322° |
| 2026-05-03 21:07 | -34.17093 | -58.52545 | 14677 ft | 358 kts | 322° |
| 2026-05-03 21:07 | -34.15103 | -58.54355 | 15344 ft | 357 kts | 311° |
| 2026-05-03 21:07 | -34.13712 | -58.56794 | 16023 ft | 353 kts | 291° |
| 2026-05-03 21:08 | -34.12991 | -58.59609 | 16745 ft | 351 kts | 277° |
| 2026-05-03 21:08 | -34.12880 | -58.61551 | 17182 ft | 352 kts | 266° |
| 2026-05-03 21:08 | -34.13257 | -58.65487 | 18101 ft | 355 kts | 261° |
| 2026-05-03 21:08 | -34.13627 | -58.68435 | 18713 ft | 358 kts | 261° |
| 2026-05-03 21:09 | -34.14000 | -58.71419 | 19279 ft | 360 kts | 261° |
| 2026-05-03 21:09 | -34.14359 | -58.74425 | 19843 ft | 363 kts | 261° |
| 2026-05-03 21:09 | -34.14706 | -58.77465 | 20369 ft | 368 kts | 261° |
| 2026-05-03 21:09 | -34.15050 | -58.80536 | 20960 ft | 370 kts | 261° |
| 2026-05-03 21:10 | -34.15388 | -58.83577 | 21535 ft | 372 kts | 261° |
| 2026-05-03 21:10 | -34.15732 | -58.86682 | 22083 ft | 375 kts | 261° |
| 2026-05-03 21:10 | -34.16080 | -58.89816 | 22611 ft | 378 kts | 261° |
| 2026-05-03 21:10 | -34.16429 | -58.92968 | 23139 ft | 381 kts | 261° |
| 2026-05-03 21:11 | -34.16664 | -58.96167 | 23636 ft | 386 kts | 271° |
| 2026-05-03 21:11 | -34.16142 | -58.99367 | 24064 ft | 393 kts | 285° |
| 2026-05-03 21:11 | -34.14951 | -59.02370 | 24522 ft | 403 kts | 300° |
| 2026-05-03 21:11 | -34.13207 | -59.05044 | 24978 ft | 408 kts | 305° |
| 2026-05-03 21:12 | -34.11344 | -59.07642 | 25398 ft | 411 kts | 306° |
| 2026-05-03 21:12 | -34.09466 | -59.10263 | 25798 ft | 414 kts | 305° |
| 2026-05-03 21:12 | -34.07605 | -59.12916 | 26184 ft | 416 kts | 304° |
| 2026-05-03 21:12 | -34.05742 | -59.15604 | 26571 ft | 418 kts | 304° |
| 2026-05-03 21:13 | -34.03875 | -59.18304 | 26939 ft | 421 kts | 304° |
| 2026-05-03 21:13 | -34.01991 | -59.21023 | 27284 ft | 424 kts | 304° |
| 2026-05-03 21:13 | -34.00095 | -59.23757 | 27640 ft | 427 kts | 304° |
| 2026-05-03 21:13 | -33.98833 | -59.25574 | 27892 ft | 428 kts | 304° |
| 2026-05-03 21:14 | -33.96268 | -59.29263 | 28372 ft | 431 kts | 304° |
| 2026-05-03 21:14 | -33.94338 | -59.32038 | 28720 ft | 433 kts | 304° |
| 2026-05-03 21:14 | -33.92400 | -59.34821 | 29099 ft | 434 kts | 304° |
| 2026-05-03 21:14 | -33.90454 | -59.37613 | 29448 ft | 436 kts | 304° |
| 2026-05-03 21:15 | -33.88499 | -59.40416 | 29780 ft | 438 kts | 303° |
| 2026-05-03 21:15 | -33.86536 | -59.43229 | 30176 ft | 438 kts | 303° |
| 2026-05-03 21:15 | -33.84582 | -59.46024 | 30571 ft | 437 kts | 303° |
| 2026-05-03 21:15 | -33.82627 | -59.48819 | 31013 ft | 435 kts | 303° |
| 2026-05-03 21:16 | -33.81341 | -59.50656 | 31280 ft | 433 kts | 303° |
| 2026-05-03 21:16 | -33.78749 | -59.54361 | 31795 ft | 433 kts | 303° |
| 2026-05-03 21:16 | -33.77467 | -59.56191 | 32031 ft | 432 kts | 303° |
| 2026-05-03 21:16 | -33.75532 | -59.58954 | 32417 ft | 431 kts | 303° |
| 2026-05-03 21:17 | -33.73607 | -59.61700 | 32821 ft | 429 kts | 303° |
| 2026-05-03 21:17 | -33.71691 | -59.64429 | 33273 ft | 426 kts | 303° |
| 2026-05-03 21:17 | -33.69779 | -59.67152 | 33565 ft | 427 kts | 302° |
| 2026-05-03 21:17 | -33.67860 | -59.69880 | 33824 ft | 428 kts | 302° |
| 2026-05-03 21:18 | -33.65939 | -59.72606 | 34155 ft | 427 kts | 302° |
| 2026-05-03 21:18 | -33.64024 | -59.75317 | 34513 ft | 425 kts | 302° |
| 2026-05-03 21:18 | -33.62116 | -59.78017 | 34852 ft | 423 kts | 302° |
| 2026-05-03 21:18 | -33.60213 | -59.80710 | 35124 ft | 423 kts | 302° |
| 2026-05-03 21:19 | -33.58312 | -59.83400 | 35403 ft | 423 kts | 302° |
| 2026-05-03 21:19 | -33.56412 | -59.86087 | 35703 ft | 421 kts | 302° |
| 2026-05-03 21:19 | -33.54517 | -59.88764 | 35978 ft | 421 kts | 302° |
| 2026-05-03 21:19 | -33.52626 | -59.91436 | 36041 ft | 421 kts | 302° |
| 2026-05-03 21:20 | -33.48832 | -59.96790 | 36057 ft | 421 kts | 302° |
| 2026-05-03 21:20 | -33.45041 | -60.02128 | 36061 ft | 420 kts | 302° |
| 2026-05-03 21:21 | -33.41262 | -60.07442 | 36059 ft | 419 kts | 302° |
| 2026-05-03 21:21 | -33.37490 | -60.12739 | 36039 ft | 418 kts | 302° |
| 2026-05-03 21:22 | -33.33725 | -60.18020 | 36043 ft | 417 kts | 302° |
| 2026-05-03 21:22 | -33.29960 | -60.23292 | 36052 ft | 417 kts | 302° |
| 2026-05-03 21:23 | -33.26192 | -60.28561 | 36051 ft | 417 kts | 302° |
| 2026-05-03 21:23 | -33.22417 | -60.33833 | 36049 ft | 418 kts | 302° |
| 2026-05-03 21:24 | -33.18636 | -60.39104 | 36042 ft | 418 kts | 302° |
| 2026-05-03 21:24 | -33.14850 | -60.44376 | 36047 ft | 419 kts | 302° |
| 2026-05-03 21:25 | -33.11049 | -60.49659 | 36050 ft | 420 kts | 303° |
| 2026-05-03 21:25 | -33.07238 | -60.54949 | 36043 ft | 421 kts | 303° |
| 2026-05-03 21:26 | -33.03424 | -60.60237 | 36028 ft | 421 kts | 302° |
| 2026-05-03 21:26 | -32.99606 | -60.65521 | 36042 ft | 421 kts | 303° |
| 2026-05-03 21:27 | -32.95785 | -60.70804 | 36050 ft | 420 kts | 303° |
| 2026-05-03 21:27 | -32.91994 | -60.76036 | 36042 ft | 420 kts | 303° |
| 2026-05-03 21:28 | -32.88671 | -60.81619 | 36059 ft | 409 kts | 293° |
| 2026-05-03 21:28 | -32.85826 | -60.87477 | 36052 ft | 408 kts | 292° |
| 2026-05-03 21:29 | -32.82977 | -60.93318 | 36045 ft | 408 kts | 293° |
| 2026-05-03 21:29 | -32.80111 | -60.99140 | 36034 ft | 408 kts | 293° |
| 2026-05-03 21:30 | -32.77233 | -61.04956 | 36029 ft | 408 kts | 293° |
| 2026-05-03 21:30 | -32.74357 | -61.10755 | 36031 ft | 407 kts | 293° |
| 2026-05-03 21:31 | -32.71479 | -61.16547 | 36018 ft | 407 kts | 293° |
| 2026-05-03 21:31 | -32.68606 | -61.22321 | 36023 ft | 406 kts | 293° |
| 2026-05-03 21:32 | -32.65732 | -61.28090 | 36029 ft | 406 kts | 293° |
| 2026-05-03 21:32 | -32.63340 | -61.32884 | 36033 ft | 406 kts | 293° |
| 2026-05-03 21:33 | -32.59975 | -61.39619 | 36028 ft | 406 kts | 294° |
| 2026-05-03 21:33 | -32.57095 | -61.45372 | 36028 ft | 406 kts | 294° |
| 2026-05-03 21:34 | -32.54215 | -61.51116 | 36017 ft | 405 kts | 294° |
| 2026-05-03 21:34 | -32.51334 | -61.56853 | 36023 ft | 405 kts | 294° |
| 2026-05-03 21:35 | -32.48451 | -61.62587 | 36025 ft | 405 kts | 294° |
| 2026-05-03 21:35 | -32.45565 | -61.68317 | 36024 ft | 405 kts | 294° |
| 2026-05-03 21:36 | -32.42675 | -61.74046 | 36022 ft | 405 kts | 294° |
| 2026-05-03 21:36 | -32.39782 | -61.79774 | 36023 ft | 406 kts | 294° |
| 2026-05-03 21:37 | -32.36906 | -61.85459 | 36019 ft | 405 kts | 294° |
| 2026-05-03 21:37 | -32.33989 | -61.91215 | 36028 ft | 405 kts | 294° |
| 2026-05-03 21:38 | -32.31081 | -61.96933 | 36022 ft | 406 kts | 294° |
| 2026-05-03 21:38 | -32.28171 | -62.02642 | 36020 ft | 406 kts | 294° |
| 2026-05-03 21:39 | -32.26734 | -62.05462 | 35894 ft | 408 kts | 294° |
| 2026-05-03 21:39 | -32.25262 | -62.08352 | 35392 ft | 411 kts | 294° |
| 2026-05-03 21:39 | -32.23788 | -62.11238 | 34816 ft | 409 kts | 294° |
| 2026-05-03 21:39 | -32.22327 | -62.14091 | 34424 ft | 404 kts | 294° |
| 2026-05-03 21:40 | -32.20878 | -62.16919 | 33982 ft | 400 kts | 294° |
| 2026-05-03 21:40 | -32.19442 | -62.19721 | 33500 ft | 397 kts | 294° |
| 2026-05-03 21:40 | -32.18020 | -62.22495 | 33061 ft | 393 kts | 294° |
| 2026-05-03 21:40 | -32.16615 | -62.25236 | 32628 ft | 389 kts | 294° |
| 2026-05-03 21:41 | -32.15216 | -62.27964 | 32211 ft | 386 kts | 294° |
| 2026-05-03 21:41 | -32.13833 | -62.30659 | 31794 ft | 382 kts | 294° |
| 2026-05-03 21:41 | -32.12444 | -62.33364 | 31385 ft | 379 kts | 294° |
| 2026-05-03 21:41 | -32.11083 | -62.36012 | 30981 ft | 376 kts | 295° |
| 2026-05-03 21:42 | -32.09730 | -62.38644 | 30580 ft | 374 kts | 295° |
| 2026-05-03 21:42 | -32.08388 | -62.41253 | 30186 ft | 371 kts | 295° |
| 2026-05-03 21:42 | -32.07053 | -62.43847 | 29740 ft | 369 kts | 295° |
| 2026-05-03 21:42 | -32.05727 | -62.46420 | 29294 ft | 365 kts | 295° |
| 2026-05-03 21:43 | -32.04414 | -62.48964 | 28889 ft | 361 kts | 295° |
| 2026-05-03 21:43 | -32.03113 | -62.51486 | 28480 ft | 358 kts | 295° |
| 2026-05-03 21:43 | -32.01826 | -62.53977 | 28072 ft | 355 kts | 295° |
| 2026-05-03 21:43 | -32.00548 | -62.56452 | 27677 ft | 352 kts | 295° |
| 2026-05-03 21:44 | -31.99280 | -62.58903 | 27280 ft | 349 kts | 295° |
| 2026-05-03 21:44 | -31.98025 | -62.61331 | 26898 ft | 346 kts | 295° |
| 2026-05-03 21:44 | -31.96776 | -62.63743 | 26507 ft | 344 kts | 295° |
| 2026-05-03 21:44 | -31.95536 | -62.66137 | 26124 ft | 341 kts | 295° |
| 2026-05-03 21:45 | -31.94322 | -62.68481 | 25737 ft | 339 kts | 295° |
| 2026-05-03 21:45 | -31.93096 | -62.70845 | 25374 ft | 337 kts | 295° |
| 2026-05-03 21:45 | -31.91877 | -62.73194 | 24990 ft | 335 kts | 295° |
| 2026-05-03 21:45 | -31.90665 | -62.75530 | 24624 ft | 334 kts | 295° |
| 2026-05-03 21:46 | -31.89455 | -62.77858 | 24234 ft | 333 kts | 295° |
| 2026-05-03 21:46 | -31.88250 | -62.80177 | 23860 ft | 332 kts | 295° |
| 2026-05-03 21:46 | -31.87049 | -62.82487 | 23459 ft | 331 kts | 295° |
| 2026-05-03 21:46 | -31.85850 | -62.84790 | 23043 ft | 329 kts | 295° |
| 2026-05-03 21:47 | -31.84657 | -62.87081 | 22643 ft | 327 kts | 296° |
| 2026-05-03 21:47 | -31.83469 | -62.89358 | 22254 ft | 325 kts | 296° |
| 2026-05-03 21:47 | -31.82290 | -62.91619 | 21880 ft | 323 kts | 296° |
| 2026-05-03 21:47 | -31.81118 | -62.93866 | 21512 ft | 321 kts | 296° |
| 2026-05-03 21:48 | -31.79849 | -62.96025 | 21121 ft | 326 kts | 308° |
| 2026-05-03 21:48 | -31.77975 | -62.97583 | 20763 ft | 338 kts | 330° |
| 2026-05-03 21:48 | -31.75658 | -62.98242 | 20445 ft | 347 kts | 348° |
| 2026-05-03 21:48 | -31.73250 | -62.98422 | 20180 ft | 346 kts | 351° |
| 2026-05-03 21:49 | -31.70853 | -62.98519 | 20000 ft | 343 kts | 352° |
| 2026-05-03 21:49 | -31.68480 | -62.98599 | 19812 ft | 344 kts | 352° |
| 2026-05-03 21:49 | -31.66021 | -62.98690 | 19600 ft | 361 kts | 352° |
| 2026-05-03 21:49 | -31.63485 | -62.98795 | 19379 ft | 368 kts | 352° |
| 2026-05-03 21:50 | -31.60931 | -62.98920 | 19145 ft | 365 kts | 349° |
| 2026-05-03 21:50 | -31.58477 | -62.99480 | 18916 ft | 355 kts | 339° |
| 2026-05-03 21:50 | -31.56108 | -63.00264 | 18687 ft | 352 kts | 338° |
| 2026-05-03 21:50 | -31.53774 | -63.01081 | 18459 ft | 349 kts | 337° |
| 2026-05-03 21:51 | -31.51452 | -63.01904 | 18220 ft | 347 kts | 337° |
| 2026-05-03 21:51 | -31.49146 | -63.02730 | 17963 ft | 346 kts | 337° |
| 2026-05-03 21:51 | -31.46856 | -63.03559 | 17705 ft | 344 kts | 337° |
| 2026-05-03 21:51 | -31.44574 | -63.04393 | 17435 ft | 343 kts | 337° |
| 2026-05-03 21:52 | -31.42466 | -63.05576 | 17156 ft | 332 kts | 317° |
| 2026-05-03 21:52 | -31.40871 | -63.07467 | 16934 ft | 324 kts | 305° |
| 2026-05-03 21:52 | -31.39494 | -63.09544 | 16689 ft | 323 kts | 303° |
| 2026-05-03 21:52 | -31.38158 | -63.11654 | 16442 ft | 323 kts | 302° |
| 2026-05-03 21:53 | -31.36831 | -63.13775 | 16193 ft | 323 kts | 302° |
| 2026-05-03 21:53 | -31.35518 | -63.15903 | 15955 ft | 322 kts | 299° |
| 2026-05-03 21:53 | -31.34530 | -63.18225 | 15715 ft | 318 kts | 289° |
| 2026-05-03 21:53 | -31.33733 | -63.20635 | 15485 ft | 318 kts | 288° |
| 2026-05-03 21:54 | -31.32972 | -63.23058 | 15243 ft | 318 kts | 287° |
| 2026-05-03 21:54 | -31.32219 | -63.25485 | 15007 ft | 318 kts | 287° |
| 2026-05-03 21:54 | -31.31471 | -63.27919 | 14773 ft | 317 kts | 287° |
| 2026-05-03 21:54 | -31.30728 | -63.30348 | 14541 ft | 317 kts | 288° |
| 2026-05-03 21:55 | -31.29627 | -63.32582 | 14295 ft | 322 kts | 310° |
| 2026-05-03 21:55 | -31.27822 | -63.34149 | 14064 ft | 329 kts | 332° |
| 2026-05-03 21:55 | -31.25624 | -63.34777 | 13838 ft | 335 kts | 354° |
| 2026-05-03 21:55 | -31.23289 | -63.34702 | 13621 ft | 336 kts | 1° |
| 2026-05-03 21:56 | -31.20964 | -63.34485 | 13364 ft | 335 kts | 2° |
| 2026-05-03 21:56 | -31.18642 | -63.34245 | 13112 ft | 334 kts | 2° |
| 2026-05-03 21:56 | -31.16327 | -63.34001 | 12859 ft | 333 kts | 2° |
| 2026-05-03 21:56 | -31.14026 | -63.33759 | 12614 ft | 332 kts | 2° |
| 2026-05-03 21:57 | -31.11730 | -63.33519 | 12367 ft | 330 kts | 2° |
| 2026-05-03 21:57 | -31.09449 | -63.33285 | 12133 ft | 328 kts | 2° |
| 2026-05-03 21:57 | -31.07191 | -63.33056 | 12043 ft | 323 kts | 2° |
| 2026-05-03 21:57 | -31.04958 | -63.32831 | 12019 ft | 322 kts | 2° |
| 2026-05-03 21:58 | -31.02726 | -63.32607 | 12022 ft | 323 kts | 2° |
| 2026-05-03 21:58 | -31.00482 | -63.32385 | 12021 ft | 324 kts | 2° |
| 2026-05-03 21:58 | -30.98237 | -63.32163 | 12014 ft | 324 kts | 2° |
| 2026-05-03 21:58 | -30.95995 | -63.31942 | 12011 ft | 323 kts | 2° |
| 2026-05-03 21:59 | -30.93756 | -63.31775 | 12010 ft | 321 kts | 354° |
| 2026-05-03 21:59 | -30.91627 | -63.32380 | 12015 ft | 313 kts | 330° |
| 2026-05-03 21:59 | -30.89937 | -63.33913 | 12017 ft | 307 kts | 306° |
| 2026-05-03 21:59 | -30.88968 | -63.36089 | 12023 ft | 303 kts | 282° |
| 2026-05-03 22:00 | -30.88879 | -63.38509 | 12025 ft | 302 kts | 259° |
| 2026-05-03 22:00 | -30.89681 | -63.40750 | 12025 ft | 303 kts | 235° |
| 2026-05-03 22:00 | -30.90607 | -63.41972 | 12036 ft | 305 kts | 225° |
| 2026-05-03 22:00 | -30.92724 | -63.44191 | 12016 ft | 307 kts | 223° |
| 2026-05-03 22:01 | -30.93798 | -63.45271 | 12014 ft | 308 kts | 223° |
| 2026-05-03 22:01 | -30.95423 | -63.46892 | 12014 ft | 308 kts | 222° |
| 2026-05-03 22:01 | -30.97053 | -63.48514 | 12009 ft | 308 kts | 222° |
| 2026-05-03 22:01 | -30.98681 | -63.50136 | 12010 ft | 308 kts | 222° |
| 2026-05-03 22:02 | -31.00308 | -63.51753 | 12012 ft | 307 kts | 222° |
| 2026-05-03 22:02 | -31.01936 | -63.53373 | 12005 ft | 307 kts | 222° |
| 2026-05-03 22:02 | -31.03557 | -63.54982 | 12017 ft | 306 kts | 222° |
| 2026-05-03 22:02 | -31.05175 | -63.56589 | 12015 ft | 305 kts | 222° |
| 2026-05-03 22:03 | -31.06789 | -63.58195 | 12015 ft | 305 kts | 223° |
| 2026-05-03 22:03 | -31.08403 | -63.59801 | 12017 ft | 305 kts | 222° |
| 2026-05-03 22:03 | -31.10015 | -63.61409 | 12012 ft | 305 kts | 222° |
| 2026-05-03 22:03 | -31.11627 | -63.63022 | 12009 ft | 304 kts | 223° |
| 2026-05-03 22:04 | -31.13215 | -63.64607 | 12002 ft | 295 kts | 222° |
| 2026-05-03 22:04 | -31.14739 | -63.66128 | 11996 ft | 281 kts | 222° |
| 2026-05-03 22:04 | -31.16195 | -63.67573 | 11994 ft | 268 kts | 223° |
| 2026-05-03 22:04 | -31.17587 | -63.68946 | 11990 ft | 256 kts | 222° |
| 2026-05-03 22:05 | -31.18910 | -63.70251 | 11990 ft | 243 kts | 223° |
| 2026-05-03 22:05 | -31.20172 | -63.71496 | 11993 ft | 232 kts | 223° |
| 2026-05-03 22:05 | -31.21388 | -63.72692 | 11999 ft | 227 kts | 223° |
| 2026-05-03 22:05 | -31.22611 | -63.73895 | 12015 ft | 236 kts | 222° |
| 2026-05-03 22:06 | -31.23935 | -63.75211 | 12047 ft | 261 kts | 223° |
| 2026-05-03 22:06 | -31.25312 | -63.76576 | 12005 ft | 256 kts | 223° |
| 2026-05-03 22:06 | -31.26642 | -63.77887 | 11988 ft | 244 kts | 223° |
| 2026-05-03 22:06 | -31.27911 | -63.79125 | 11985 ft | 233 kts | 223° |
| 2026-05-03 22:07 | -31.29139 | -63.80319 | 11986 ft | 226 kts | 222° |
| 2026-05-03 22:07 | -31.30353 | -63.81506 | 12011 ft | 230 kts | 223° |
| 2026-05-03 22:07 | -31.31604 | -63.82728 | 12013 ft | 237 kts | 223° |
| 2026-05-03 22:07 | -31.32874 | -63.83970 | 12006 ft | 237 kts | 223° |
| 2026-05-03 22:08 | -31.34133 | -63.85195 | 11995 ft | 234 kts | 223° |
| 2026-05-03 22:08 | -31.35376 | -63.86410 | 11987 ft | 232 kts | 223° |
| 2026-05-03 22:08 | -31.36618 | -63.87632 | 12001 ft | 234 kts | 223° |
| 2026-05-03 22:08 | -31.37872 | -63.88865 | 12006 ft | 237 kts | 223° |
| 2026-05-03 22:09 | -31.39137 | -63.90112 | 11999 ft | 238 kts | 223° |
| 2026-05-03 22:09 | -31.40403 | -63.91370 | 12002 ft | 239 kts | 223° |
| 2026-05-03 22:09 | -31.41672 | -63.92636 | 12017 ft | 240 kts | 223° |
| 2026-05-03 22:10 | -31.44212 | -63.95162 | 12003 ft | 236 kts | 223° |
| 2026-05-03 22:10 | -31.45460 | -63.96399 | 11989 ft | 236 kts | 223° |
| 2026-05-03 22:10 | -31.46745 | -63.97686 | 12029 ft | 254 kts | 223° |
| 2026-05-03 22:10 | -31.48091 | -63.99029 | 11991 ft | 253 kts | 223° |
| 2026-05-03 22:11 | -31.49319 | -64.00254 | 11980 ft | 244 kts | 223° |
| 2026-05-03 22:11 | -31.50581 | -64.01506 | 11977 ft | 232 kts | 223° |
| 2026-05-03 22:11 | -31.51797 | -64.02715 | 11971 ft | 227 kts | 223° |
| 2026-05-03 22:11 | -31.53004 | -64.03921 | 12007 ft | 231 kts | 223° |
| 2026-05-03 22:12 | -31.54247 | -64.05158 | 12001 ft | 237 kts | 222° |
| 2026-05-03 22:12 | -31.55505 | -64.06422 | 12001 ft | 239 kts | 223° |
| 2026-05-03 22:12 | -31.56775 | -64.07689 | 11990 ft | 240 kts | 223° |
| 2026-05-03 22:12 | -31.58040 | -64.08963 | 11997 ft | 240 kts | 223° |
| 2026-05-03 22:13 | -31.59309 | -64.10237 | 12004 ft | 238 kts | 223° |
| 2026-05-03 22:13 | -31.60570 | -64.11482 | 11990 ft | 236 kts | 223° |
| 2026-05-03 22:13 | -31.61820 | -64.12726 | 11988 ft | 236 kts | 223° |
| 2026-05-03 22:13 | -31.63068 | -64.13971 | 11987 ft | 236 kts | 223° |
| 2026-05-03 22:14 | -31.64317 | -64.15204 | 11988 ft | 233 kts | 223° |
| 2026-05-03 22:14 | -31.65559 | -64.16419 | 11985 ft | 232 kts | 223° |
| 2026-05-03 22:14 | -31.66793 | -64.17627 | 11970 ft | 232 kts | 223° |
| 2026-05-03 22:14 | -31.68162 | -64.18661 | 11967 ft | 241 kts | 199° |
| 2026-05-03 22:15 | -31.69856 | -64.18722 | 11998 ft | 254 kts | 168° |
| 2026-05-03 22:15 | -31.71437 | -64.17730 | 11984 ft | 266 kts | 140° |
| 2026-05-03 22:15 | -31.72473 | -64.15902 | 11985 ft | 274 kts | 110° |
| 2026-05-03 22:15 | -31.72698 | -64.13698 | 11812 ft | 275 kts | 82° |
| 2026-05-03 22:16 | -31.72294 | -64.11494 | 11390 ft | 281 kts | 74° |
| 2026-05-03 22:16 | -31.71766 | -64.09248 | 10969 ft | 288 kts | 73° |
| 2026-05-03 22:16 | -31.71221 | -64.06988 | 10717 ft | 286 kts | 73° |
| 2026-05-03 22:16 | -31.70675 | -64.04741 | 10472 ft | 285 kts | 73° |
| 2026-05-03 22:17 | -31.70126 | -64.02516 | 10180 ft | 285 kts | 71° |
| 2026-05-03 22:17 | -31.69133 | -64.00549 | 9859 ft | 279 kts | 37° |
| 2026-05-03 22:17 | -31.67450 | -63.99635 | 9680 ft | 264 kts | 2° |
| 2026-05-03 22:17 | -31.65684 | -63.99879 | 9501 ft | 252 kts | 343° |
| 2026-05-03 22:18 | -31.63985 | -64.00404 | 9227 ft | 252 kts | 342° |
| 2026-05-03 22:18 | -31.62311 | -64.00885 | 9130 ft | 245 kts | 343° |
| 2026-05-03 22:18 | -31.60688 | -64.01307 | 9022 ft | 231 kts | 346° |
| 2026-05-03 22:18 | -31.59139 | -64.01676 | 8809 ft | 223 kts | 345° |
| 2026-05-03 22:19 | -31.57636 | -64.02015 | 8517 ft | 219 kts | 347° |
| 2026-05-03 22:19 | -31.56133 | -64.02341 | 8159 ft | 218 kts | 347° |
| 2026-05-03 22:19 | -31.54660 | -64.02650 | 7870 ft | 214 kts | 347° |
| 2026-05-03 22:19 | -31.53189 | -64.02953 | 7493 ft | 215 kts | 348° |
| 2026-05-03 22:20 | -31.51724 | -64.03248 | 7188 ft | 212 kts | 348° |
| 2026-05-03 22:20 | -31.50279 | -64.03535 | 6911 ft | 209 kts | 348° |
| 2026-05-03 22:20 | -31.48859 | -64.03817 | 6605 ft | 207 kts | 348° |
| 2026-05-03 22:20 | -31.47445 | -64.04096 | 6318 ft | 205 kts | 349° |
| 2026-05-03 22:21 | -31.46037 | -64.04373 | 6095 ft | 203 kts | 349° |
| 2026-05-03 22:21 | -31.44722 | -64.04921 | 6011 ft | 203 kts | 323° |
| 2026-05-03 22:21 | -31.43838 | -64.06189 | 6007 ft | 205 kts | 299° |
| 2026-05-03 22:21 | -31.43482 | -64.07828 | 6007 ft | 213 kts | 277° |
| 2026-05-03 22:22 | -31.43478 | -64.09553 | 6008 ft | 214 kts | 274° |
| 2026-05-03 22:22 | -31.43497 | -64.11308 | 5859 ft | 213 kts | 269° |
| 2026-05-03 22:22 | -31.43856 | -64.13014 | 5572 ft | 218 kts | 257° |
| 2026-05-03 22:22 | -31.44308 | -64.14714 | 5288 ft | 219 kts | 258° |
| 2026-05-03 22:23 | -31.44761 | -64.16418 | 5051 ft | 219 kts | 258° |
| 2026-05-03 22:23 | -31.45206 | -64.18119 | 4826 ft | 217 kts | 258° |
| 2026-05-03 22:23 | -31.45643 | -64.19811 | 4552 ft | 218 kts | 258° |
| 2026-05-03 22:23 | -31.46085 | -64.21520 | 4258 ft | 221 kts | 258° |
| 2026-05-03 22:24 | -31.46199 | -64.23263 | 3988 ft | 210 kts | 289° |
| 2026-05-03 22:24 | -31.45517 | -64.24629 | 3732 ft | 190 kts | 324° |
| 2026-05-03 22:24 | -31.44374 | -64.25138 | 3506 ft | 169 kts | 1° |
| 2026-05-03 22:24 | -31.43291 | -64.24909 | 3563 ft | 156 kts | 24° |
| 2026-05-03 22:25 | -31.42343 | -64.24356 | 3534 ft | 146 kts | 26° |
| 2026-05-03 22:25 | -31.41473 | -64.23814 | 3402 ft | 142 kts | 26° |
| 2026-05-03 22:25 | -31.40618 | -64.23284 | 3207 ft | 136 kts | 26° |
| 2026-05-03 22:25 | -31.39789 | -64.22767 | 3028 ft | 135 kts | 27° |
| 2026-05-03 22:26 | -31.38930 | -64.22240 | 2840 ft | 141 kts | 27° |
| 2026-05-03 22:26 | -31.38029 | -64.21787 | 2638 ft | 140 kts | 20° |
| 2026-05-03 22:26 | -31.37121 | -64.21433 | 2504 ft | 132 kts | 18° |
| 2026-05-03 22:26 | -31.36269 | -64.21115 | 2523 ft | 127 kts | 16° |
| 2026-05-03 22:27 | -31.35410 | -64.20900 | 2277 ft | 122 kts | 9° |
| 2026-05-03 22:27 | -31.34548 | -64.20821 | 2054 ft | 128 kts | 5° |
| 2026-05-03 22:27 | -31.33644 | -64.20802 | 1903 ft | 131 kts | 1° |
| 2026-05-03 22:27 | -31.32731 | -64.20810 | 1704 ft | 130 kts | 360° |
| 2026-05-03 22:28 | -31.31843 | -64.20830 | 1622 ft | 118 kts | 0° |
| 2026-05-03 22:28 | -31.31163 | -64.20834 | 1616 ft | 69 kts | 359° |
| 2026-05-03 22:28 | -31.30919 | -64.20847 | 1615 ft | 7 kts | 347° |
| 2026-05-03 22:28 | -31.30908 | -64.20823 | 1616 ft | 4 kts | 138° |
| 2026-05-03 22:29 | -31.30988 | -64.20829 | 1613 ft | 21 kts | 185° |
| 2026-05-03 22:29 | -31.31179 | -64.20833 | 1616 ft | 32 kts | 179° |
| 2026-05-03 22:29 | -31.31393 | -64.20831 | 1617 ft | 26 kts | 183° |
| 2026-05-03 22:29 | -31.31466 | -64.20917 | 1613 ft | 13 kts | 270° |
| 2026-05-03 22:30 | -31.31466 | -64.20949 | 1612 ft | 0 kts | 270° |
| 2026-05-03 22:30 | -31.31469 | -64.21010 | 1612 ft | 15 kts | 259° |
| 2026-05-03 22:31 | -31.31500 | -64.21063 | 1612 ft | 5 kts | 219° |
| 2026-05-03 22:31 | -31.31534 | -64.21102 | 1617 ft | 9 kts | 241° |
| 2026-05-03 22:31 | -31.31548 | -64.21154 | 1616 ft | 3 kts | 257° |
| 2026-05-03 22:31 | -31.31550 | -64.21165 | 1615 ft | 1 kts | 257° |
| 2026-05-03 22:32 | -31.31551 | -64.21169 | 1612 ft | 0 kts | 257° |